sensor_id;sensor_type;location;lat;lon;timestamp;P1;durP1;ratioP1;P2;durP2;ratioP2
10114;SDS011;5097;43.260;27.812;2023-10-08T00:01:02;4.67;;;2.93;;
10114;SDS011;5097;43.260;27.812;2023-10-08T00:03:48;3.77;;;2.50;;
10114;SDS011;5097;43.260;27.812;2023-10-08T00:06:35;5.17;;;2.80;;
10114;SDS011;5097;43.260;27.812;2023-10-08T00:09:20;4.60;;;3.30;;
10114;SDS011;5097;43.260;27.812;2023-10-08T00:12:04;4.20;;;2.97;;
10114;SDS011;5097;43.260;27.812;2023-10-08T00:14:51;5.73;;;3.33;;
10114;SDS011;5097;43.260;27.812;2023-10-08T00:17:37;4.30;;;2.90;;
10114;SDS011;5097;43.260;27.812;2023-10-08T00:20:21;5.47;;;2.93;;
10114;SDS011;5097;43.260;27.812;2023-10-08T00:23:11;3.10;;;2.80;;
10114;SDS011;5097;43.260;27.812;2023-10-08T00:25:55;4.60;;;3.03;;
10114;SDS011;5097;43.260;27.812;2023-10-08T00:28:46;3.53;;;3.00;;
10114;SDS011;5097;43.260;27.812;2023-10-08T00:31:34;3.93;;;3.10;;
10114;SDS011;5097;43.260;27.812;2023-10-08T00:34:22;3.97;;;3.10;;
10114;SDS011;5097;43.260;27.812;2023-10-08T00:37:07;4.50;;;2.77;;
10114;SDS011;5097;43.260;27.812;2023-10-08T00:39:53;3.53;;;3.10;;
10114;SDS011;5097;43.260;27.812;2023-10-08T00:42:39;3.87;;;3.10;;
10114;SDS011;5097;43.260;27.812;2023-10-08T00:45:28;4.53;;;3.00;;
10114;SDS011;5097;43.260;27.812;2023-10-08T00:48:14;3.93;;;2.80;;
10114;SDS011;5097;43.260;27.812;2023-10-08T00:50:59;3.43;;;2.77;;
10114;SDS011;5097;43.260;27.812;2023-10-08T00:54:05;2.97;;;2.53;;
10114;SDS011;5097;43.260;27.812;2023-10-08T00:56:53;4.50;;;3.17;;
10114;SDS011;5097;43.260;27.812;2023-10-08T00:59:40;5.60;;;3.20;;
10114;SDS011;5097;43.260;27.812;2023-10-08T01:02:28;4.03;;;2.80;;
10114;SDS011;5097;43.260;27.812;2023-10-08T01:05:28;4.77;;;3.33;;
10114;SDS011;5097;43.260;27.812;2023-10-08T01:08:30;4.27;;;2.90;;
10114;SDS011;5097;43.260;27.812;2023-10-08T01:11:19;4.27;;;2.87;;
10114;SDS011;5097;43.260;27.812;2023-10-08T01:14:14;5.43;;;3.23;;
10114;SDS011;5097;43.260;27.812;2023-10-08T01:16:59;4.63;;;2.83;;
10114;SDS011;5097;43.260;27.812;2023-10-08T01:19:43;4.17;;;2.80;;
10114;SDS011;5097;43.260;27.812;2023-10-08T01:22:34;5.07;;;3.30;;
10114;SDS011;5097;43.260;27.812;2023-10-08T01:25:22;3.97;;;2.67;;
10114;SDS011;5097;43.260;27.812;2023-10-08T01:28:07;3.40;;;2.33;;
10114;SDS011;5097;43.260;27.812;2023-10-08T01:30:59;2.60;;;2.30;;
10114;SDS011;5097;43.260;27.812;2023-10-08T01:33:46;3.27;;;2.57;;
10114;SDS011;5097;43.260;27.812;2023-10-08T01:36:38;4.93;;;2.97;;
10114;SDS011;5097;43.260;27.812;2023-10-08T01:39:26;4.37;;;2.50;;
10114;SDS011;5097;43.260;27.812;2023-10-08T01:42:14;4.17;;;2.77;;
10114;SDS011;5097;43.260;27.812;2023-10-08T01:45:03;3.20;;;2.13;;
10114;SDS011;5097;43.260;27.812;2023-10-08T01:47:50;5.00;;;2.97;;
10114;SDS011;5097;43.260;27.812;2023-10-08T01:50:37;3.87;;;3.03;;
10114;SDS011;5097;43.260;27.812;2023-10-08T01:53:22;6.57;;;3.57;;
10114;SDS011;5097;43.260;27.812;2023-10-08T01:56:07;5.57;;;3.30;;
10114;SDS011;5097;43.260;27.812;2023-10-08T01:58:53;5.17;;;2.37;;
10114;SDS011;5097;43.260;27.812;2023-10-08T02:01:38;6.50;;;2.67;;
10114;SDS011;5097;43.260;27.812;2023-10-08T02:04:22;5.67;;;3.10;;
10114;SDS011;5097;43.260;27.812;2023-10-08T02:07:08;4.13;;;2.83;;
10114;SDS011;5097;43.260;27.812;2023-10-08T02:09:55;5.00;;;3.43;;
10114;SDS011;5097;43.260;27.812;2023-10-08T02:12:41;4.53;;;2.37;;
10114;SDS011;5097;43.260;27.812;2023-10-08T02:15:25;3.60;;;2.47;;
10114;SDS011;5097;43.260;27.812;2023-10-08T02:18:10;6.00;;;2.90;;
10114;SDS011;5097;43.260;27.812;2023-10-08T02:20:55;5.70;;;2.87;;
10114;SDS011;5097;43.260;27.812;2023-10-08T02:23:42;4.40;;;2.70;;
10114;SDS011;5097;43.260;27.812;2023-10-08T02:26:27;4.77;;;3.23;;
10114;SDS011;5097;43.260;27.812;2023-10-08T02:29:13;4.03;;;3.17;;
10114;SDS011;5097;43.260;27.812;2023-10-08T02:31:57;4.00;;;2.47;;
10114;SDS011;5097;43.260;27.812;2023-10-08T02:34:42;3.63;;;3.23;;
10114;SDS011;5097;43.260;27.812;2023-10-08T02:37:27;4.33;;;2.77;;
10114;SDS011;5097;43.260;27.812;2023-10-08T02:40:11;5.07;;;3.10;;
10114;SDS011;5097;43.260;27.812;2023-10-08T02:43:02;5.07;;;3.43;;
10114;SDS011;5097;43.260;27.812;2023-10-08T02:45:52;3.97;;;2.63;;
10114;SDS011;5097;43.260;27.812;2023-10-08T02:48:38;4.30;;;3.00;;
10114;SDS011;5097;43.260;27.812;2023-10-08T02:51:22;6.90;;;2.77;;
10114;SDS011;5097;43.260;27.812;2023-10-08T02:54:07;4.40;;;3.17;;
10114;SDS011;5097;43.260;27.812;2023-10-08T02:56:59;6.77;;;3.10;;
10114;SDS011;5097;43.260;27.812;2023-10-08T02:59:47;4.93;;;3.17;;
10114;SDS011;5097;43.260;27.812;2023-10-08T03:02:35;5.83;;;3.30;;
10114;SDS011;5097;43.260;27.812;2023-10-08T03:05:22;6.03;;;2.77;;
10114;SDS011;5097;43.260;27.812;2023-10-08T03:08:12;4.60;;;3.23;;
10114;SDS011;5097;43.260;27.812;2023-10-08T03:11:02;4.83;;;3.10;;
10114;SDS011;5097;43.260;27.812;2023-10-08T03:13:46;4.17;;;2.90;;
10114;SDS011;5097;43.260;27.812;2023-10-08T03:16:35;3.47;;;2.70;;
10114;SDS011;5097;43.260;27.812;2023-10-08T03:19:21;5.83;;;3.20;;
10114;SDS011;5097;43.260;27.812;2023-10-08T03:22:07;5.33;;;3.10;;
10114;SDS011;5097;43.260;27.812;2023-10-08T03:24:53;5.37;;;3.17;;
10114;SDS011;5097;43.260;27.812;2023-10-08T03:27:40;6.57;;;2.83;;
10114;SDS011;5097;43.260;27.812;2023-10-08T03:30:24;4.53;;;3.33;;
10114;SDS011;5097;43.260;27.812;2023-10-08T03:33:09;5.53;;;3.37;;
10114;SDS011;5097;43.260;27.812;2023-10-08T03:35:56;5.30;;;3.30;;
10114;SDS011;5097;43.260;27.812;2023-10-08T03:38:42;5.67;;;3.17;;
10114;SDS011;5097;43.260;27.812;2023-10-08T03:41:34;3.70;;;2.87;;
10114;SDS011;5097;43.260;27.812;2023-10-08T03:44:22;5.77;;;3.50;;
10114;SDS011;5097;43.260;27.812;2023-10-08T03:47:07;4.83;;;3.13;;
10114;SDS011;5097;43.260;27.812;2023-10-08T03:49:54;4.47;;;3.27;;
10114;SDS011;5097;43.260;27.812;2023-10-08T03:52:40;5.20;;;3.43;;
10114;SDS011;5097;43.260;27.812;2023-10-08T03:55:26;6.27;;;3.40;;
10114;SDS011;5097;43.260;27.812;2023-10-08T03:58:17;4.77;;;3.53;;
10114;SDS011;5097;43.260;27.812;2023-10-08T04:01:09;5.17;;;3.13;;
10114;SDS011;5097;43.260;27.812;2023-10-08T04:04:00;5.13;;;3.30;;
10114;SDS011;5097;43.260;27.812;2023-10-08T04:06:45;7.13;;;4.00;;
10114;SDS011;5097;43.260;27.812;2023-10-08T04:09:33;5.37;;;3.20;;
10114;SDS011;5097;43.260;27.812;2023-10-08T04:12:17;4.30;;;3.20;;
10114;SDS011;5097;43.260;27.812;2023-10-08T04:15:01;4.47;;;3.30;;
10114;SDS011;5097;43.260;27.812;2023-10-08T04:17:50;6.43;;;3.47;;
10114;SDS011;5097;43.260;27.812;2023-10-08T04:20:34;3.47;;;2.33;;
10114;SDS011;5097;43.260;27.812;2023-10-08T04:23:21;3.60;;;2.70;;
10114;SDS011;5097;43.260;27.812;2023-10-08T04:26:07;4.70;;;3.00;;
10114;SDS011;5097;43.260;27.812;2023-10-08T04:28:52;5.13;;;2.77;;
10114;SDS011;5097;43.260;27.812;2023-10-08T04:31:40;5.87;;;3.50;;
10114;SDS011;5097;43.260;27.812;2023-10-08T04:34:26;4.43;;;3.07;;
10114;SDS011;5097;43.260;27.812;2023-10-08T04:37:10;5.53;;;3.10;;
10114;SDS011;5097;43.260;27.812;2023-10-08T04:39:55;4.17;;;3.00;;
10114;SDS011;5097;43.260;27.812;2023-10-08T04:42:43;3.07;;;2.47;;
10114;SDS011;5097;43.260;27.812;2023-10-08T04:45:30;3.87;;;2.80;;
10114;SDS011;5097;43.260;27.812;2023-10-08T04:48:16;4.93;;;2.83;;
10114;SDS011;5097;43.260;27.812;2023-10-08T04:51:03;4.27;;;3.73;;
10114;SDS011;5097;43.260;27.812;2023-10-08T04:53:47;3.97;;;2.70;;
10114;SDS011;5097;43.260;27.812;2023-10-08T04:56:31;4.53;;;2.60;;
10114;SDS011;5097;43.260;27.812;2023-10-08T04:59:17;4.37;;;3.00;;
10114;SDS011;5097;43.260;27.812;2023-10-08T05:02:04;6.10;;;3.07;;
10114;SDS011;5097;43.260;27.812;2023-10-08T05:05:02;4.73;;;2.93;;
10114;SDS011;5097;43.260;27.812;2023-10-08T05:08:04;5.00;;;3.17;;
10114;SDS011;5097;43.260;27.812;2023-10-08T05:11:11;6.67;;;3.40;;
10114;SDS011;5097;43.260;27.812;2023-10-08T05:14:30;4.07;;;2.90;;
10114;SDS011;5097;43.260;27.812;2023-10-08T05:17:17;7.80;;;3.63;;
10114;SDS011;5097;43.260;27.812;2023-10-08T05:20:05;3.43;;;3.03;;
10114;SDS011;5097;43.260;27.812;2023-10-08T05:23:05;3.90;;;2.87;;
10114;SDS011;5097;43.260;27.812;2023-10-08T05:26:02;4.30;;;2.90;;
10114;SDS011;5097;43.260;27.812;2023-10-08T05:29:03;5.30;;;2.73;;
10114;SDS011;5097;43.260;27.812;2023-10-08T05:32:08;4.33;;;3.10;;
10114;SDS011;5097;43.260;27.812;2023-10-08T05:35:21;4.70;;;3.50;;
10114;SDS011;5097;43.260;27.812;2023-10-08T05:38:31;5.60;;;3.40;;
10114;SDS011;5097;43.260;27.812;2023-10-08T05:41:31;5.33;;;3.13;;
10114;SDS011;5097;43.260;27.812;2023-10-08T05:44:34;5.20;;;3.17;;
10114;SDS011;5097;43.260;27.812;2023-10-08T05:47:23;4.88;;;3.30;;
10114;SDS011;5097;43.260;27.812;2023-10-08T05:50:21;4.40;;;3.00;;
10114;SDS011;5097;43.260;27.812;2023-10-08T05:53:21;3.90;;;2.90;;
10114;SDS011;5097;43.260;27.812;2023-10-08T05:56:26;5.77;;;3.27;;
10114;SDS011;5097;43.260;27.812;2023-10-08T05:59:24;5.53;;;3.38;;
10114;SDS011;5097;43.260;27.812;2023-10-08T06:02:21;4.63;;;2.78;;
10114;SDS011;5097;43.260;27.812;2023-10-08T06:05:12;4.22;;;3.55;;
10114;SDS011;5097;43.260;27.812;2023-10-08T06:08:06;4.70;;;3.42;;
10114;SDS011;5097;43.260;27.812;2023-10-08T06:10:55;5.90;;;3.70;;
10114;SDS011;5097;43.260;27.812;2023-10-08T06:13:43;5.63;;;3.50;;
10114;SDS011;5097;43.260;27.812;2023-10-08T06:16:33;4.50;;;3.40;;
10114;SDS011;5097;43.260;27.812;2023-10-08T06:19:24;4.25;;;3.22;;
10114;SDS011;5097;43.260;27.812;2023-10-08T06:22:10;4.47;;;3.08;;
10114;SDS011;5097;43.260;27.812;2023-10-08T06:24:54;3.40;;;3.05;;
10114;SDS011;5097;43.260;27.812;2023-10-08T06:27:58;4.68;;;3.25;;
10114;SDS011;5097;43.260;27.812;2023-10-08T06:30:45;5.72;;;3.28;;
10114;SDS011;5097;43.260;27.812;2023-10-08T06:33:30;5.55;;;3.35;;
10114;SDS011;5097;43.260;27.812;2023-10-08T06:36:16;4.68;;;3.10;;
10114;SDS011;5097;43.260;27.812;2023-10-08T06:39:05;5.57;;;3.53;;
10114;SDS011;5097;43.260;27.812;2023-10-08T06:41:55;5.40;;;3.75;;
10114;SDS011;5097;43.260;27.812;2023-10-08T06:44:44;4.32;;;2.88;;
10114;SDS011;5097;43.260;27.812;2023-10-08T06:47:31;5.57;;;3.53;;
10114;SDS011;5097;43.260;27.812;2023-10-08T06:50:15;8.73;;;3.50;;
10114;SDS011;5097;43.260;27.812;2023-10-08T06:53:00;6.28;;;4.43;;
10114;SDS011;5097;43.260;27.812;2023-10-08T06:55:50;3.63;;;3.30;;
10114;SDS011;5097;43.260;27.812;2023-10-08T06:58:39;8.10;;;4.15;;
10114;SDS011;5097;43.260;27.812;2023-10-08T07:01:28;4.70;;;3.67;;
10114;SDS011;5097;43.260;27.812;2023-10-08T07:04:21;4.43;;;2.97;;
10114;SDS011;5097;43.260;27.812;2023-10-08T07:07:06;5.05;;;3.80;;
10114;SDS011;5097;43.260;27.812;2023-10-08T07:09:52;6.47;;;2.85;;
10114;SDS011;5097;43.260;27.812;2023-10-08T07:12:40;10.38;;;3.05;;
10114;SDS011;5097;43.260;27.812;2023-10-08T07:15:28;6.75;;;3.65;;
10114;SDS011;5097;43.260;27.812;2023-10-08T07:18:14;6.25;;;3.58;;
10114;SDS011;5097;43.260;27.812;2023-10-08T07:21:07;5.70;;;3.20;;
10114;SDS011;5097;43.260;27.812;2023-10-08T07:23:55;5.80;;;2.90;;
10114;SDS011;5097;43.260;27.812;2023-10-08T07:26:43;5.78;;;3.22;;
10114;SDS011;5097;43.260;27.812;2023-10-08T07:29:31;5.82;;;3.67;;
10114;SDS011;5097;43.260;27.812;2023-10-08T07:32:17;7.38;;;2.90;;
10114;SDS011;5097;43.260;27.812;2023-10-08T07:35:04;5.72;;;3.72;;
10114;SDS011;5097;43.260;27.812;2023-10-08T07:38:06;6.47;;;3.53;;
10114;SDS011;5097;43.260;27.812;2023-10-08T07:40:52;5.28;;;3.92;;
10114;SDS011;5097;43.260;27.812;2023-10-08T07:43:37;6.65;;;3.65;;
10114;SDS011;5097;43.260;27.812;2023-10-08T07:46:23;5.57;;;3.67;;
10114;SDS011;5097;43.260;27.812;2023-10-08T07:49:08;5.75;;;3.83;;
10114;SDS011;5097;43.260;27.812;2023-10-08T07:51:57;3.95;;;3.55;;
10114;SDS011;5097;43.260;27.812;2023-10-08T07:54:42;5.50;;;3.42;;
10114;SDS011;5097;43.260;27.812;2023-10-08T07:57:26;6.97;;;3.70;;
10114;SDS011;5097;43.260;27.812;2023-10-08T08:00:10;5.72;;;3.88;;
10114;SDS011;5097;43.260;27.812;2023-10-08T08:03:07;6.40;;;3.83;;
10114;SDS011;5097;43.260;27.812;2023-10-08T08:05:52;4.97;;;3.22;;
10114;SDS011;5097;43.260;27.812;2023-10-08T08:08:36;4.38;;;3.35;;
10114;SDS011;5097;43.260;27.812;2023-10-08T08:11:22;6.45;;;3.60;;
10114;SDS011;5097;43.260;27.812;2023-10-08T08:14:08;4.45;;;3.63;;
10114;SDS011;5097;43.260;27.812;2023-10-08T08:16:53;7.25;;;3.45;;
10114;SDS011;5097;43.260;27.812;2023-10-08T12:59:37;4.80;;;2.08;;
10114;SDS011;5097;43.260;27.812;2023-10-08T13:02:26;4.63;;;2.05;;
10114;SDS011;5097;43.260;27.812;2023-10-08T13:05:11;2.22;;;1.80;;
10114;SDS011;5097;43.260;27.812;2023-10-08T13:07:58;1.92;;;1.50;;
10114;SDS011;5097;43.260;27.812;2023-10-08T13:10:46;3.67;;;2.30;;
10114;SDS011;5097;43.260;27.812;2023-10-08T13:13:31;3.50;;;1.70;;
10114;SDS011;5097;43.260;27.812;2023-10-08T13:16:19;3.17;;;1.65;;
10114;SDS011;5097;43.260;27.812;2023-10-08T13:19:07;4.35;;;1.92;;
10114;SDS011;5097;43.260;27.812;2023-10-08T13:21:51;4.18;;;1.90;;
10114;SDS011;5097;43.260;27.812;2023-10-08T13:24:36;3.47;;;2.08;;
10114;SDS011;5097;43.260;27.812;2023-10-08T13:27:24;2.17;;;1.63;;
10114;SDS011;5097;43.260;27.812;2023-10-08T13:30:10;3.17;;;1.70;;
10114;SDS011;5097;43.260;27.812;2023-10-08T13:32:54;3.10;;;1.85;;
10114;SDS011;5097;43.260;27.812;2023-10-08T13:35:39;5.93;;;2.22;;
10114;SDS011;5097;43.260;27.812;2023-10-08T13:38:23;3.30;;;1.52;;
10114;SDS011;5097;43.260;27.812;2023-10-08T13:41:12;6.55;;;2.00;;
10114;SDS011;5097;43.260;27.812;2023-10-08T13:43:59;3.83;;;2.10;;
10114;SDS011;5097;43.260;27.812;2023-10-08T13:46:49;4.00;;;1.60;;
10114;SDS011;5097;43.260;27.812;2023-10-08T13:49:33;3.03;;;1.83;;
10114;SDS011;5097;43.260;27.812;2023-10-08T13:52:18;3.33;;;2.20;;
10114;SDS011;5097;43.260;27.812;2023-10-08T13:55:08;3.65;;;2.40;;
10114;SDS011;5097;43.260;27.812;2023-10-08T13:57:56;3.63;;;2.03;;
10114;SDS011;5097;43.260;27.812;2023-10-08T14:00:40;3.88;;;2.28;;
10114;SDS011;5097;43.260;27.812;2023-10-08T14:03:25;4.07;;;1.95;;
10114;SDS011;5097;43.260;27.812;2023-10-08T14:06:13;4.45;;;2.00;;
10114;SDS011;5097;43.260;27.812;2023-10-08T14:08:58;4.65;;;2.00;;
10114;SDS011;5097;43.260;27.812;2023-10-08T14:11:43;3.95;;;2.25;;
10114;SDS011;5097;43.260;27.812;2023-10-08T14:14:27;4.15;;;2.10;;
10114;SDS011;5097;43.260;27.812;2023-10-08T14:17:13;4.35;;;2.63;;
10114;SDS011;5097;43.260;27.812;2023-10-08T14:20:00;6.40;;;2.28;;
10114;SDS011;5097;43.260;27.812;2023-10-08T14:22:50;3.47;;;2.05;;
10114;SDS011;5097;43.260;27.812;2023-10-08T14:25:39;7.43;;;3.08;;
10114;SDS011;5097;43.260;27.812;2023-10-08T14:28:27;5.97;;;2.10;;
10114;SDS011;5097;43.260;27.812;2023-10-08T14:31:23;7.85;;;2.38;;
10114;SDS011;5097;43.260;27.812;2023-10-08T14:34:09;4.05;;;2.05;;
10114;SDS011;5097;43.260;27.812;2023-10-08T14:37:13;4.35;;;2.20;;
10114;SDS011;5097;43.260;27.812;2023-10-08T14:40:15;7.32;;;2.40;;
10114;SDS011;5097;43.260;27.812;2023-10-08T14:43:18;4.22;;;2.78;;
10114;SDS011;5097;43.260;27.812;2023-10-08T14:46:05;3.90;;;2.30;;
10114;SDS011;5097;43.260;27.812;2023-10-08T14:48:52;9.30;;;2.88;;
10114;SDS011;5097;43.260;27.812;2023-10-08T14:51:38;4.65;;;2.17;;
10114;SDS011;5097;43.260;27.812;2023-10-08T14:54:25;4.95;;;2.42;;
10114;SDS011;5097;43.260;27.812;2023-10-08T14:57:10;3.92;;;2.45;;
10114;SDS011;5097;43.260;27.812;2023-10-08T14:59:57;3.55;;;2.30;;
10114;SDS011;5097;43.260;27.812;2023-10-08T15:02:41;3.50;;;2.25;;
10114;SDS011;5097;43.260;27.812;2023-10-08T15:05:25;5.00;;;2.30;;
10114;SDS011;5097;43.260;27.812;2023-10-08T15:08:10;10.30;;;2.85;;
10114;SDS011;5097;43.260;27.812;2023-10-08T15:10:58;6.70;;;2.58;;
10114;SDS011;5097;43.260;27.812;2023-10-08T15:13:42;5.72;;;2.88;;
10114;SDS011;5097;43.260;27.812;2023-10-08T15:16:28;5.50;;;2.88;;
10114;SDS011;5097;43.260;27.812;2023-10-08T15:19:13;6.13;;;2.72;;
10114;SDS011;5097;43.260;27.812;2023-10-08T15:21:58;5.43;;;2.20;;
10114;SDS011;5097;43.260;27.812;2023-10-08T15:24:43;5.28;;;2.10;;
10114;SDS011;5097;43.260;27.812;2023-10-08T15:27:29;8.57;;;2.97;;
10114;SDS011;5097;43.260;27.812;2023-10-08T15:30:16;4.32;;;2.60;;
10114;SDS011;5097;43.260;27.812;2023-10-08T15:33:03;5.45;;;2.83;;
10114;SDS011;5097;43.260;27.812;2023-10-08T15:35:48;9.13;;;2.45;;
10114;SDS011;5097;43.260;27.812;2023-10-08T15:38:32;3.47;;;2.05;;
10114;SDS011;5097;43.260;27.812;2023-10-08T15:41:16;3.83;;;2.60;;
10114;SDS011;5097;43.260;27.812;2023-10-08T15:44:03;5.55;;;2.70;;
10114;SDS011;5097;43.260;27.812;2023-10-08T15:46:48;6.25;;;2.72;;
10114;SDS011;5097;43.260;27.812;2023-10-08T15:49:32;3.92;;;2.55;;
10114;SDS011;5097;43.260;27.812;2023-10-08T15:52:16;5.78;;;2.20;;
10114;SDS011;5097;43.260;27.812;2023-10-08T15:55:01;4.57;;;1.90;;
10114;SDS011;5097;43.260;27.812;2023-10-08T15:57:46;4.07;;;1.90;;
10114;SDS011;5097;43.260;27.812;2023-10-08T16:00:31;6.50;;;1.90;;
10114;SDS011;5097;43.260;27.812;2023-10-08T16:03:16;3.67;;;1.67;;
10114;SDS011;5097;43.260;27.812;2023-10-08T16:06:01;2.35;;;1.63;;
10114;SDS011;5097;43.260;27.812;2023-10-08T16:08:47;2.30;;;1.70;;
10114;SDS011;5097;43.260;27.812;2023-10-08T16:11:31;2.35;;;2.05;;
10114;SDS011;5097;43.260;27.812;2023-10-08T16:14:17;3.35;;;1.90;;
10114;SDS011;5097;43.260;27.812;2023-10-08T16:17:04;9.90;;;3.33;;
10114;SDS011;5097;43.260;27.812;2023-10-08T16:19:51;12.90;;;2.50;;
10114;SDS011;5097;43.260;27.812;2023-10-08T16:22:35;14.70;;;2.30;;
10114;SDS011;5097;43.260;27.812;2023-10-08T16:25:20;13.32;;;2.83;;
10114;SDS011;5097;43.260;27.812;2023-10-08T16:28:05;12.43;;;3.45;;
10114;SDS011;5097;43.260;27.812;2023-10-08T16:30:50;11.70;;;2.92;;
10114;SDS011;5097;43.260;27.812;2023-10-08T16:33:37;11.48;;;2.70;;
10114;SDS011;5097;43.260;27.812;2023-10-08T16:36:21;10.30;;;2.70;;
10114;SDS011;5097;43.260;27.812;2023-10-08T16:39:06;9.10;;;2.33;;
10114;SDS011;5097;43.260;27.812;2023-10-08T16:41:53;13.65;;;2.67;;
10114;SDS011;5097;43.260;27.812;2023-10-08T16:44:39;11.75;;;3.08;;
10114;SDS011;5097;43.260;27.812;2023-10-08T16:47:24;11.25;;;2.75;;
10114;SDS011;5097;43.260;27.812;2023-10-08T16:50:09;7.93;;;1.55;;
10114;SDS011;5097;43.260;27.812;2023-10-08T16:52:54;8.20;;;1.85;;
10114;SDS011;5097;43.260;27.812;2023-10-08T16:55:42;7.72;;;2.65;;
10114;SDS011;5097;43.260;27.812;2023-10-08T16:58:28;7.85;;;2.53;;
10114;SDS011;5097;43.260;27.812;2023-10-08T17:01:12;7.78;;;1.95;;
10114;SDS011;5097;43.260;27.812;2023-10-08T17:03:57;3.92;;;1.15;;
10114;SDS011;5097;43.260;27.812;2023-10-08T17:06:44;6.43;;;1.58;;
10114;SDS011;5097;43.260;27.812;2023-10-08T17:09:30;8.75;;;2.10;;
10114;SDS011;5097;43.260;27.812;2023-10-08T17:12:14;13.05;;;3.55;;
10114;SDS011;5097;43.260;27.812;2023-10-08T17:15:01;4.88;;;1.90;;
10114;SDS011;5097;43.260;27.812;2023-10-08T17:17:48;6.15;;;2.10;;
10114;SDS011;5097;43.260;27.812;2023-10-08T17:20:32;1.60;;;1.50;;
10114;SDS011;5097;43.260;27.812;2023-10-08T17:23:18;3.97;;;1.35;;
10114;SDS011;5097;43.260;27.812;2023-10-08T17:26:03;3.13;;;1.23;;
10114;SDS011;5097;43.260;27.812;2023-10-08T17:28:48;5.53;;;2.87;;
10114;SDS011;5097;43.260;27.812;2023-10-08T17:31:33;3.10;;;2.13;;
10114;SDS011;5097;43.260;27.812;2023-10-08T17:34:20;7.70;;;2.50;;
10114;SDS011;5097;43.260;27.812;2023-10-08T17:37:05;2.13;;;1.57;;
10114;SDS011;5097;43.260;27.812;2023-10-08T17:39:51;7.20;;;1.43;;
10114;SDS011;5097;43.260;27.812;2023-10-08T17:42:36;7.60;;;1.93;;
10114;SDS011;5097;43.260;27.812;2023-10-08T17:45:21;3.73;;;1.77;;
10114;SDS011;5097;43.260;27.812;2023-10-08T17:48:13;2.23;;;1.10;;
10114;SDS011;5097;43.260;27.812;2023-10-08T17:50:58;3.97;;;1.23;;
10114;SDS011;5097;43.260;27.812;2023-10-08T17:53:43;1.07;;;0.97;;
10114;SDS011;5097;43.260;27.812;2023-10-08T17:56:29;2.67;;;1.50;;
10114;SDS011;5097;43.260;27.812;2023-10-08T17:59:14;2.40;;;1.27;;
10114;SDS011;5097;43.260;27.812;2023-10-08T18:02:03;4.80;;;1.30;;
10114;SDS011;5097;43.260;27.812;2023-10-08T18:04:49;1.37;;;1.27;;
10114;SDS011;5097;43.260;27.812;2023-10-08T18:07:34;5.83;;;1.43;;
10114;SDS011;5097;43.260;27.812;2023-10-08T18:10:19;4.50;;;1.87;;
10114;SDS011;5097;43.260;27.812;2023-10-08T18:13:07;2.33;;;1.00;;
10114;SDS011;5097;43.260;27.812;2023-10-08T18:15:52;2.53;;;1.47;;
10114;SDS011;5097;43.260;27.812;2023-10-08T18:18:37;0.60;;;0.60;;
10114;SDS011;5097;43.260;27.812;2023-10-08T18:21:22;3.60;;;1.20;;
10114;SDS011;5097;43.260;27.812;2023-10-08T18:24:08;5.07;;;1.00;;
10114;SDS011;5097;43.260;27.812;2023-10-08T18:26:54;2.00;;;1.13;;
10114;SDS011;5097;43.260;27.812;2023-10-08T18:29:43;4.43;;;1.10;;
10114;SDS011;5097;43.260;27.812;2023-10-08T18:32:28;2.03;;;1.30;;
10114;SDS011;5097;43.260;27.812;2023-10-08T18:35:14;1.47;;;1.00;;
10114;SDS011;5097;43.260;27.812;2023-10-08T18:37:58;1.40;;;1.00;;
10114;SDS011;5097;43.260;27.812;2023-10-08T18:40:43;0.70;;;0.70;;
10114;SDS011;5097;43.260;27.812;2023-10-08T18:43:28;4.70;;;1.87;;
10114;SDS011;5097;43.260;27.812;2023-10-08T18:46:15;1.90;;;1.53;;
10114;SDS011;5097;43.260;27.812;2023-10-08T18:49:00;6.73;;;1.90;;
10114;SDS011;5097;43.260;27.812;2023-10-08T18:51:45;1.00;;;0.83;;
10114;SDS011;5097;43.260;27.812;2023-10-08T18:54:31;3.20;;;1.23;;
10114;SDS011;5097;43.260;27.812;2023-10-08T18:57:21;3.80;;;0.80;;
10114;SDS011;5097;43.260;27.812;2023-10-08T19:00:06;3.70;;;1.07;;
10114;SDS011;5097;43.260;27.812;2023-10-08T19:02:55;2.23;;;0.90;;
10114;SDS011;5097;43.260;27.812;2023-10-08T19:05:41;2.10;;;1.23;;
10114;SDS011;5097;43.260;27.812;2023-10-08T19:08:25;2.33;;;0.87;;
10114;SDS011;5097;43.260;27.812;2023-10-08T19:11:10;1.30;;;1.20;;
10114;SDS011;5097;43.260;27.812;2023-10-08T19:13:58;2.07;;;1.00;;
10114;SDS011;5097;43.260;27.812;2023-10-08T19:16:43;4.13;;;1.20;;
10114;SDS011;5097;43.260;27.812;2023-10-08T19:19:33;2.87;;;1.07;;
10114;SDS011;5097;43.260;27.812;2023-10-08T19:22:18;0.50;;;0.50;;
10114;SDS011;5097;43.260;27.812;2023-10-08T19:25:06;0.80;;;0.80;;
10114;SDS011;5097;43.260;27.812;2023-10-08T19:28:00;0.97;;;0.97;;
10114;SDS011;5097;43.260;27.812;2023-10-08T19:30:45;1.10;;;1.00;;
10114;SDS011;5097;43.260;27.812;2023-10-08T19:33:30;2.07;;;0.90;;
10114;SDS011;5097;43.260;27.812;2023-10-08T19:36:18;0.97;;;0.77;;
10114;SDS011;5097;43.260;27.812;2023-10-08T19:39:03;1.20;;;1.10;;
10114;SDS011;5097;43.260;27.812;2023-10-08T19:41:49;5.43;;;1.13;;
10114;SDS011;5097;43.260;27.812;2023-10-08T19:44:34;1.70;;;1.30;;
10114;SDS011;5097;43.260;27.812;2023-10-08T19:47:18;2.30;;;1.00;;
10114;SDS011;5097;43.260;27.812;2023-10-08T19:50:03;2.03;;;1.47;;
10114;SDS011;5097;43.260;27.812;2023-10-08T19:52:49;1.37;;;1.13;;
10114;SDS011;5097;43.260;27.812;2023-10-08T19:55:38;3.90;;;1.33;;
10114;SDS011;5097;43.260;27.812;2023-10-08T19:58:25;1.50;;;1.13;;
10114;SDS011;5097;43.260;27.812;2023-10-08T20:01:11;2.30;;;2.10;;
10114;SDS011;5097;43.260;27.812;2023-10-08T20:03:59;1.07;;;1.00;;
10114;SDS011;5097;43.260;27.812;2023-10-08T20:06:43;1.30;;;0.80;;
10114;SDS011;5097;43.260;27.812;2023-10-08T20:09:30;1.47;;;0.83;;
10114;SDS011;5097;43.260;27.812;2023-10-08T20:12:14;1.33;;;0.63;;
10114;SDS011;5097;43.260;27.812;2023-10-08T20:14:58;1.53;;;1.10;;
10114;SDS011;5097;43.260;27.812;2023-10-08T20:17:45;1.67;;;1.40;;
10114;SDS011;5097;43.260;27.812;2023-10-08T20:20:30;0.73;;;0.73;;
10114;SDS011;5097;43.260;27.812;2023-10-08T20:23:15;0.97;;;0.97;;
10114;SDS011;5097;43.260;27.812;2023-10-08T20:26:09;2.23;;;1.60;;
10114;SDS011;5097;43.260;27.812;2023-10-08T20:28:56;1.80;;;0.90;;
10114;SDS011;5097;43.260;27.812;2023-10-08T20:31:40;0.80;;;0.80;;
10114;SDS011;5097;43.260;27.812;2023-10-08T20:34:25;0.93;;;0.70;;
10114;SDS011;5097;43.260;27.812;2023-10-08T20:37:09;1.80;;;0.50;;
10114;SDS011;5097;43.260;27.812;2023-10-08T20:39:53;1.20;;;1.10;;
10114;SDS011;5097;43.260;27.812;2023-10-08T20:42:42;2.20;;;1.00;;
10114;SDS011;5097;43.260;27.812;2023-10-08T20:45:29;1.07;;;1.00;;
10114;SDS011;5097;43.260;27.812;2023-10-08T20:48:14;1.03;;;0.57;;
10114;SDS011;5097;43.260;27.812;2023-10-08T20:50:58;2.23;;;1.10;;
10114;SDS011;5097;43.260;27.812;2023-10-08T20:53:42;1.70;;;0.87;;
10114;SDS011;5097;43.260;27.812;2023-10-08T20:56:27;0.47;;;0.47;;
10114;SDS011;5097;43.260;27.812;2023-10-08T20:59:13;0.77;;;0.50;;
10114;SDS011;5097;43.260;27.812;2023-10-08T21:01:57;2.53;;;1.37;;
10114;SDS011;5097;43.260;27.812;2023-10-08T21:04:41;0.90;;;0.90;;
10114;SDS011;5097;43.260;27.812;2023-10-08T21:07:27;2.90;;;1.57;;
10114;SDS011;5097;43.260;27.812;2023-10-08T21:10:12;1.97;;;1.20;;
10114;SDS011;5097;43.260;27.812;2023-10-08T21:12:56;5.87;;;1.37;;
10114;SDS011;5097;43.260;27.812;2023-10-08T21:15:42;3.00;;;1.40;;
10114;SDS011;5097;43.260;27.812;2023-10-08T21:18:27;1.00;;;1.00;;
10114;SDS011;5097;43.260;27.812;2023-10-08T21:21:16;1.07;;;1.03;;
10114;SDS011;5097;43.260;27.812;2023-10-08T21:24:05;0.50;;;0.50;;
10114;SDS011;5097;43.260;27.812;2023-10-08T21:26:49;2.60;;;1.37;;
10114;SDS011;5097;43.260;27.812;2023-10-08T21:29:33;1.17;;;1.07;;